createdAt,value
2023-05-05T00:01:57.509Z,56.53
2023-05-05T00:04:30.436Z,56.61
2023-05-05T00:07:03.472Z,56.71
2023-05-05T00:09:36.672Z,56.51
2023-05-05T00:12:11.685Z,56.61
2023-05-05T00:14:44.772Z,56.77
2023-05-05T00:17:17.629Z,56.89
2023-05-05T00:19:50.566Z,56.87
2023-05-05T00:22:23.526Z,56.78
2023-05-05T00:24:56.603Z,56.78
2023-05-05T00:27:29.519Z,56.95
2023-05-05T00:30:02.575Z,57.01
2023-05-05T00:32:35.372Z,56.86
2023-05-05T00:35:11.835Z,56.95
2023-05-05T00:37:44.672Z,56.92
2023-05-05T00:40:18.636Z,56.77
2023-05-05T00:42:52.606Z,56.84
2023-05-05T00:45:25.516Z,56.79
2023-05-05T00:48:01.299Z,56.79
2023-05-05T00:50:34.937Z,56.74
2023-05-05T00:53:10.166Z,56.86
2023-05-05T00:55:43.921Z,56.93
2023-05-05T00:58:17.310Z,57.04
2023-05-05T01:00:50.726Z,57.03
2023-05-05T01:03:24.188Z,57.12
2023-05-05T01:06:05.935Z,57.06
2023-05-05T01:08:48.313Z,57.13
2023-05-05T01:11:27.643Z,56.95
2023-05-05T01:14:10.177Z,56.99
2023-05-05T01:16:53.124Z,57.06
2023-05-05T01:19:51.266Z,57.02
2023-05-05T01:22:30.171Z,57.04
2023-05-05T01:25:28.525Z,57.06
2023-05-05T01:28:08.946Z,57.12
2023-05-05T01:31:11.219Z,57.18
2023-05-05T01:33:49.692Z,57.12
2023-05-05T01:36:27.956Z,56.96
2023-05-05T01:39:03.609Z,57.07
2023-05-05T01:41:44.507Z,57.21
2023-05-05T01:44:20.090Z,57.40
2023-05-05T01:46:56.061Z,57.58
2023-05-05T01:49:30.049Z,57.79
2023-05-05T01:52:05.282Z,57.84
2023-05-05T01:54:40.837Z,57.65
2023-05-05T01:57:15.745Z,57.79
2023-05-05T01:59:48.570Z,57.88
2023-05-05T02:02:25.482Z,57.82
2023-05-05T02:05:00.379Z,57.89
2023-05-05T02:07:34.456Z,57.83
2023-05-05T02:10:09.893Z,57.88
2023-05-05T02:12:46.859Z,58.01
2023-05-05T02:15:20.149Z,57.80
2023-05-05T02:17:54.506Z,57.64
2023-05-05T02:20:29.028Z,57.63
2023-05-05T02:23:09.001Z,57.51
2023-05-05T02:25:45.943Z,57.68
2023-05-05T02:28:24.788Z,57.65
2023-05-05T02:31:00.853Z,57.64
2023-05-05T02:33:36.921Z,58.02
2023-05-05T02:36:15.960Z,58.02
2023-05-05T02:38:51.123Z,58.14
2023-05-05T02:41:27.027Z,57.97
2023-05-05T02:44:02.002Z,57.89
2023-05-05T02:46:34.636Z,57.87
2023-05-05T02:49:08.464Z,57.91
2023-05-05T02:51:41.252Z,57.93
2023-05-05T02:54:14.245Z,57.85
2023-05-05T02:56:51.071Z,57.94
2023-05-05T02:59:34.757Z,58.01
2023-05-05T03:02:16.952Z,58.16
2023-05-05T03:04:54.864Z,57.94
2023-05-05T03:07:32.463Z,57.88
2023-05-05T03:10:11.424Z,58.31
2023-05-05T03:12:50.773Z,58.26
2023-05-05T03:15:27.752Z,58.30
2023-05-05T03:18:01.947Z,58.26
2023-05-05T03:20:35.631Z,58.37
2023-05-05T03:23:09.783Z,58.48
2023-05-05T03:25:47.536Z,58.29
2023-05-05T03:28:21.054Z,58.28
2023-05-05T03:30:54.418Z,58.48
2023-05-05T03:33:27.247Z,58.32
2023-05-05T03:36:00.431Z,58.25
2023-05-05T03:38:33.255Z,58.28
2023-05-05T03:41:06.217Z,58.58
2023-05-05T03:43:41.562Z,58.81
2023-05-05T03:46:15.953Z,59.05
2023-05-05T03:48:50.290Z,59.19
2023-05-05T03:51:23.775Z,59.13
2023-05-05T03:53:56.694Z,59.17
2023-05-05T03:56:29.956Z,59.14
2023-05-05T03:59:02.787Z,59.28
2023-05-05T04:01:36.031Z,59.14
2023-05-05T04:04:13.252Z,59.16
2023-05-05T04:06:46.089Z,59.28
2023-05-05T04:09:19.128Z,59.14
2023-05-05T04:11:52.077Z,59.34
2023-05-05T04:14:38.937Z,59.22
2023-05-05T04:17:13.458Z,59.09
2023-05-05T04:19:46.287Z,59.16
2023-05-05T04:22:58.195Z,59.11
2023-05-05T04:25:42.861Z,59.04
2023-05-05T04:28:16.048Z,58.97
2023-05-05T04:30:53.389Z,58.76
2023-05-05T04:33:27.560Z,58.90
2023-05-05T04:36:00.421Z,58.79
2023-05-05T04:38:34.041Z,58.75
2023-05-05T04:41:10.176Z,58.67
2023-05-05T04:43:43.910Z,58.58
2023-05-05T04:46:17.098Z,58.70
2023-05-05T04:48:54.006Z,58.59
2023-05-05T04:51:27.844Z,58.67
2023-05-05T04:54:01.194Z,58.63
2023-05-05T04:56:35.309Z,58.86
2023-05-05T04:59:09.371Z,58.97
2023-05-05T05:01:42.703Z,59.01
2023-05-05T05:04:20.051Z,59.44
2023-05-05T05:06:52.813Z,59.59
2023-05-05T05:09:26.373Z,59.12
2023-05-05T05:12:03.163Z,58.90
2023-05-05T05:15:16.120Z,58.81
2023-05-05T05:18:02.416Z,58.37
2023-05-05T05:20:35.498Z,58.52
2023-05-05T05:23:08.413Z,58.40
2023-05-05T05:25:43.997Z,58.21
2023-05-05T05:28:16.684Z,58.08
2023-05-05T05:30:50.488Z,58.30
2023-05-05T05:33:23.085Z,58.19
2023-05-05T05:35:56.042Z,57.99
2023-05-05T05:38:29.024Z,58.04
2023-05-05T05:41:25.231Z,57.76
2023-05-05T05:44:11.657Z,57.30
2023-05-05T05:46:51.997Z,57.40
2023-05-05T05:49:41.480Z,57.27
2023-05-05T05:52:18.214Z,57.07
2023-05-05T05:55:27.920Z,57.10
2023-05-05T05:58:25.233Z,57.04
2023-05-05T06:01:12.149Z,57.00
2023-05-05T06:04:34.368Z,56.91
2023-05-05T06:07:35.497Z,56.72
2023-05-05T06:13:22.589Z,56.78
2023-05-05T06:16:44.478Z,56.61
2023-05-05T06:19:54.067Z,56.51
2023-05-05T06:22:27.807Z,56.38
2023-05-05T06:25:01.299Z,56.33
2023-05-05T06:27:40.855Z,56.20
2023-05-05T06:30:26.725Z,55.88
2023-05-05T06:33:00.122Z,55.69
2023-05-05T06:35:33.589Z,55.74
2023-05-05T06:38:07.715Z,55.67
2023-05-05T06:40:49.584Z,55.33
2023-05-05T06:43:27.411Z,55.24
2023-05-05T06:46:00.316Z,55.17
2023-05-05T06:48:47.638Z,54.92
2023-05-05T06:51:24.474Z,54.95
2023-05-05T06:53:57.816Z,54.87
2023-05-05T06:56:32.019Z,54.90
2023-05-05T06:59:05.034Z,54.73
2023-05-05T07:01:52.218Z,54.68
2023-05-05T07:04:27.058Z,54.16
2023-05-05T07:07:00.299Z,54.21
2023-05-05T07:09:33.208Z,54.18
2023-05-05T07:12:06.541Z,53.99
2023-05-05T07:14:42.855Z,53.73
2023-05-05T07:17:16.091Z,53.66
2023-05-05T07:20:00.042Z,53.57
2023-05-05T07:22:32.871Z,53.34
2023-05-05T07:25:07.151Z,52.91
2023-05-05T07:27:44.486Z,53.02
2023-05-05T07:30:19.191Z,53.03
2023-05-05T07:32:52.997Z,52.78
2023-05-05T07:35:26.735Z,52.65
2023-05-05T07:37:59.606Z,52.67
2023-05-05T07:40:36.926Z,52.68
2023-05-05T07:43:13.085Z,52.24
2023-05-05T07:45:47.241Z,51.94
2023-05-05T07:48:20.151Z,51.44
2023-05-05T07:50:53.446Z,51.41
2023-05-05T07:53:26.478Z,51.30
2023-05-05T07:56:01.607Z,51.40
2023-05-05T07:58:34.888Z,51.23
2023-05-05T08:01:11.882Z,51.25
2023-05-05T08:03:45.916Z,50.87
2023-05-05T08:06:22.462Z,50.95
2023-05-05T08:08:56.261Z,50.67
2023-05-05T08:11:29.918Z,50.54
2023-05-05T08:14:03.282Z,50.41
2023-05-05T08:16:36.645Z,50.22
2023-05-05T08:19:29.138Z,49.80
2023-05-05T08:22:03.373Z,49.61
2023-05-05T08:24:36.839Z,49.11
2023-05-05T08:27:11.427Z,49.14
2023-05-05T08:29:45.353Z,48.73
2023-05-05T08:32:18.884Z,48.94
2023-05-05T08:34:52.622Z,48.64
2023-05-05T08:37:26.237Z,48.41
2023-05-05T08:40:01.840Z,48.35
2023-05-05T08:42:38.654Z,48.14
2023-05-05T08:45:14.773Z,48.06
2023-05-05T08:47:48.478Z,48.01
2023-05-05T08:50:24.576Z,47.71
2023-05-05T08:53:03.934Z,47.58
2023-05-05T08:55:40.771Z,47.45
2023-05-05T08:58:15.499Z,47.16
2023-05-05T09:00:49.100Z,46.61
2023-05-05T09:03:22.689Z,47.16
2023-05-05T09:05:56.304Z,46.75
2023-05-05T09:08:29.658Z,46.62
2023-05-05T09:11:04.003Z,45.83
2023-05-05T09:13:37.131Z,45.96
2023-05-05T09:16:14.707Z,45.83
2023-05-05T09:18:47.777Z,45.60
2023-05-05T09:21:26.112Z,45.39
2023-05-05T09:24:13.025Z,45.30
2023-05-05T09:26:46.911Z,45.17
2023-05-05T09:29:24.599Z,44.96
2023-05-05T09:32:08.815Z,44.93
2023-05-05T09:34:45.329Z,43.96
2023-05-05T09:37:30.928Z,43.97
2023-05-05T09:40:03.959Z,43.75
2023-05-05T09:42:38.837Z,43.80
2023-05-05T09:45:28.640Z,44.10
2023-05-05T09:48:01.992Z,44.17
2023-05-05T09:50:45.621Z,44.04
2023-05-05T09:53:18.749Z,43.81
2023-05-05T09:56:01.213Z,43.39
2023-05-05T09:58:35.733Z,43.11
2023-05-05T10:01:22.895Z,43.26
2023-05-05T10:03:56.190Z,43.32
2023-05-05T10:06:44.265Z,43.14
2023-05-05T10:09:19.635Z,42.96
2023-05-05T10:11:53.531Z,42.95
2023-05-05T10:14:28.445Z,42.92
2023-05-05T10:17:03.173Z,42.45
2023-05-05T10:19:38.190Z,42.74
2023-05-05T10:22:13.435Z,42.80
2023-05-05T10:24:52.520Z,42.72
2023-05-05T10:27:28.004Z,42.90
2023-05-05T10:30:07.618Z,43.44
2023-05-05T10:32:59.392Z,43.40
2023-05-05T10:35:55.106Z,43.35
2023-05-05T10:38:30.271Z,43.44
2023-05-05T10:41:04.627Z,43.48
2023-05-05T10:43:37.575Z,43.43
2023-05-05T10:46:12.207Z,43.42
2023-05-05T10:48:52.799Z,43.37
2023-05-05T10:51:39.850Z,43.18
2023-05-05T10:54:18.094Z,42.88
2023-05-05T10:56:51.813Z,43.03
2023-05-05T10:59:53.425Z,42.96
2023-05-05T11:02:28.301Z,42.80
2023-05-05T11:05:18.241Z,42.80
2023-05-05T11:07:52.660Z,42.83
2023-05-05T11:10:25.537Z,42.65
2023-05-05T11:13:22.377Z,42.71
2023-05-05T11:15:56.376Z,42.70
2023-05-05T11:18:40.324Z,42.64
2023-05-05T11:21:19.310Z,42.35
2023-05-05T11:23:53.514Z,42.45
2023-05-05T11:26:52.525Z,42.29
2023-05-05T11:29:25.457Z,42.13
2023-05-05T11:32:16.864Z,42.41
2023-05-05T11:34:53.529Z,42.54
2023-05-05T11:37:28.316Z,42.52
2023-05-05T11:40:11.877Z,42.49
2023-05-05T11:42:46.582Z,42.28
2023-05-05T11:45:26.074Z,41.83
2023-05-05T11:48:27.432Z,41.43
2023-05-05T11:51:02.459Z,40.88
2023-05-05T11:53:35.473Z,40.78
2023-05-05T11:56:14.310Z,40.71
2023-05-05T11:58:47.904Z,40.32
2023-05-05T12:01:20.629Z,40.55
2023-05-05T12:03:53.836Z,40.45
2023-05-05T12:06:27.821Z,39.89
2023-05-05T12:09:01.290Z,40.09
2023-05-05T12:11:40.002Z,39.94
2023-05-05T12:14:14.622Z,39.85
2023-05-05T12:17:01.749Z,39.67
2023-05-05T12:19:35.039Z,39.42
2023-05-05T12:22:07.918Z,38.71
2023-05-05T12:24:40.803Z,38.44
2023-05-05T12:27:18.949Z,38.07
2023-05-05T12:29:52.643Z,38.17
2023-05-05T12:32:28.132Z,38.75
2023-05-05T12:35:02.210Z,38.39
2023-05-05T12:37:35.225Z,38.56
2023-05-05T12:40:29.682Z,38.70
2023-05-05T12:43:02.892Z,38.61
2023-05-05T12:45:35.855Z,38.45
2023-05-05T12:48:24.611Z,38.22
2023-05-05T12:51:12.125Z,38.29
2023-05-05T12:53:45.825Z,38.33
2023-05-05T12:56:36.061Z,37.97
2023-05-05T12:59:10.106Z,37.61
2023-05-05T13:01:53.744Z,37.31
2023-05-05T13:04:32.204Z,36.92
2023-05-05T13:07:15.858Z,36.41
2023-05-05T13:09:51.668Z,36.27
2023-05-05T13:12:26.204Z,36.60
2023-05-05T13:14:58.985Z,36.60
2023-05-05T13:17:34.088Z,36.60
2023-05-05T13:20:10.112Z,36.30
2023-05-05T13:22:45.067Z,36.76
2023-05-05T13:25:18.581Z,37.16
2023-05-05T13:27:51.573Z,37.78
2023-05-05T13:30:24.559Z,39.01
2023-05-05T13:32:57.426Z,39.71
2023-05-05T13:35:30.130Z,40.22
2023-05-05T13:38:03.064Z,40.34
2023-05-05T13:40:36.055Z,40.82
2023-05-05T13:43:08.897Z,40.76
2023-05-05T13:45:42.168Z,41.36
2023-05-05T13:48:16.327Z,41.74
2023-05-05T13:50:49.181Z,42.40
2023-05-05T13:53:22.798Z,42.39
2023-05-05T13:55:56.021Z,42.91
2023-05-05T13:58:30.611Z,43.05
2023-05-05T14:01:03.302Z,44.37
2023-05-05T14:03:36.396Z,45.12
2023-05-05T14:06:10.508Z,45.17
2023-05-05T14:08:46.368Z,45.68
2023-05-05T14:11:20.961Z,46.49
2023-05-05T14:13:54.455Z,45.85
2023-05-05T14:16:27.117Z,45.86
2023-05-05T14:19:00.416Z,46.33
2023-05-05T14:21:34.165Z,46.32
2023-05-05T14:24:08.119Z,46.77
2023-05-05T14:26:41.474Z,48.20
2023-05-05T14:29:15.856Z,48.40
2023-05-05T14:31:49.922Z,48.61
2023-05-05T14:34:23.301Z,48.61
2023-05-05T14:36:58.427Z,49.05
2023-05-05T14:39:31.281Z,48.66
2023-05-05T14:42:04.426Z,48.53
2023-05-05T14:44:37.246Z,48.32
2023-05-05T14:47:10.185Z,48.75
2023-05-05T14:49:44.339Z,48.17
2023-05-05T14:52:19.620Z,48.20
2023-05-05T14:54:52.456Z,48.47
2023-05-05T14:57:25.986Z,48.43
2023-05-05T15:00:02.426Z,48.46
2023-05-05T15:02:36.657Z,48.81
2023-05-05T15:05:10.999Z,49.02
2023-05-05T15:07:47.492Z,48.89
2023-05-05T15:10:21.969Z,48.90
2023-05-05T15:12:55.486Z,49.05
2023-05-05T15:15:28.733Z,48.89
2023-05-05T15:18:02.952Z,48.88
2023-05-05T15:20:35.779Z,49.08
2023-05-05T15:23:09.741Z,49.20
2023-05-05T15:25:44.774Z,48.93
2023-05-05T15:28:20.103Z,48.80
2023-05-05T15:30:52.741Z,49.01
2023-05-05T15:33:25.679Z,49.11
2023-05-05T15:35:58.777Z,48.88
2023-05-05T15:38:32.879Z,48.20
2023-05-05T15:41:07.868Z,47.91
2023-05-05T15:43:41.302Z,47.60
2023-05-05T15:46:17.356Z,47.33
2023-05-05T15:48:52.863Z,46.91
2023-05-05T15:51:25.747Z,46.60
2023-05-05T15:53:59.799Z,46.04
2023-05-05T15:56:56.748Z,45.70
2023-05-05T15:59:29.981Z,45.49
2023-05-05T16:02:03.161Z,45.00
2023-05-05T16:04:36.727Z,45.03
2023-05-05T16:07:10.238Z,44.56
2023-05-05T16:09:47.555Z,43.95
2023-05-05T16:12:21.065Z,43.17
2023-05-05T16:14:56.598Z,43.06
2023-05-05T16:17:29.518Z,42.78
2023-05-05T16:20:02.536Z,42.39
2023-05-05T16:22:35.772Z,41.94
2023-05-05T16:25:10.645Z,42.39
2023-05-05T16:27:44.601Z,42.43
2023-05-05T16:30:18.610Z,42.31
2023-05-05T16:32:54.936Z,42.59
2023-05-05T16:35:27.838Z,41.86
2023-05-05T16:38:00.926Z,41.30
2023-05-05T16:40:33.732Z,41.63
2023-05-05T16:43:06.676Z,41.31
2023-05-05T16:45:39.580Z,41.63
2023-05-05T16:48:15.054Z,42.03
2023-05-05T16:50:50.038Z,42.07
2023-05-05T16:53:23.003Z,42.11
2023-05-05T16:55:56.076Z,42.06
2023-05-05T16:58:29.228Z,42.18
2023-05-05T17:01:03.522Z,42.53
2023-05-05T17:03:36.295Z,42.92
2023-05-05T17:06:09.776Z,43.18
2023-05-05T17:08:44.466Z,43.08
2023-05-05T17:11:17.756Z,43.20
2023-05-05T17:13:50.475Z,43.24
2023-05-05T17:16:23.274Z,43.51
2023-05-05T17:18:56.558Z,43.85
2023-05-05T17:21:29.458Z,43.92
2023-05-05T17:24:02.605Z,44.14
2023-05-05T17:26:35.498Z,44.81
2023-05-05T17:29:09.248Z,44.86
2023-05-05T17:31:54.236Z,44.92
2023-05-05T17:34:31.512Z,45.17
2023-05-05T17:37:06.651Z,45.03
2023-05-05T17:39:39.648Z,45.44
2023-05-05T17:42:12.308Z,45.01
2023-05-05T17:44:47.698Z,45.25
2023-05-05T17:47:25.687Z,45.05
2023-05-05T17:50:10.870Z,45.22
2023-05-05T17:52:45.184Z,45.53
2023-05-05T17:55:18.648Z,45.65
2023-05-05T17:57:51.827Z,45.42
2023-05-05T18:00:26.682Z,45.43
2023-05-05T18:03:01.008Z,45.48
2023-05-05T18:05:35.631Z,45.85
2023-05-05T18:08:08.840Z,45.80
2023-05-05T18:10:45.752Z,45.94
2023-05-05T18:13:20.159Z,45.85
2023-05-05T18:15:55.058Z,45.95
2023-05-05T18:18:29.637Z,45.91
2023-05-05T18:21:18.514Z,46.05
2023-05-05T18:24:23.962Z,46.26
2023-05-05T18:27:23.690Z,46.40
2023-05-05T18:30:23.566Z,46.45
2023-05-05T18:32:56.954Z,46.69
2023-05-05T18:35:32.573Z,46.85
2023-05-05T18:38:54.056Z,46.87
2023-05-05T18:41:36.788Z,46.93
2023-05-05T18:44:36.210Z,47.18
2023-05-05T18:47:27.858Z,47.13
2023-05-05T18:50:17.364Z,47.29
2023-05-05T18:53:06.191Z,47.40
2023-05-05T18:55:49.265Z,47.66
2023-05-05T18:58:36.741Z,47.86
2023-05-05T19:01:30.539Z,47.97
2023-05-05T19:04:30.127Z,47.94
2023-05-05T19:07:07.562Z,48.21
2023-05-05T19:09:44.595Z,48.58
2023-05-05T19:12:19.328Z,48.58
2023-05-05T19:14:53.829Z,48.84
2023-05-05T19:17:27.085Z,49.00
2023-05-05T19:20:01.801Z,49.05
2023-05-05T19:22:34.784Z,49.19
2023-05-05T19:25:09.570Z,49.31
2023-05-05T19:27:42.897Z,49.35
2023-05-05T19:30:19.468Z,49.43
2023-05-05T19:32:52.375Z,49.52
2023-05-05T19:35:26.475Z,49.46
2023-05-05T19:38:02.930Z,49.48
2023-05-05T19:40:36.337Z,49.51
2023-05-05T19:43:09.204Z,49.29
2023-05-05T19:45:42.285Z,49.07
2023-05-05T19:48:16.872Z,49.19
2023-05-05T19:50:54.161Z,49.14
2023-05-05T19:53:27.906Z,48.93
2023-05-05T19:56:01.357Z,48.87
2023-05-05T19:58:35.631Z,49.14
2023-05-05T20:01:08.902Z,49.18
2023-05-05T20:03:41.801Z,49.18
2023-05-05T20:06:16.374Z,49.45
2023-05-05T20:08:51.764Z,49.33
2023-05-05T20:11:26.893Z,49.44
2023-05-05T20:13:59.985Z,49.72
2023-05-05T20:16:33.754Z,49.63
2023-05-05T20:19:06.774Z,49.73
2023-05-05T20:21:41.315Z,50.12
2023-05-05T20:24:14.588Z,50.49
2023-05-05T20:26:50.557Z,50.79
2023-05-05T20:29:27.825Z,50.88
2023-05-05T20:32:00.921Z,50.65
2023-05-05T20:34:34.206Z,50.69
2023-05-05T20:37:07.246Z,50.64
2023-05-05T20:39:42.349Z,50.69
2023-05-05T20:42:17.012Z,50.71
2023-05-05T20:44:50.521Z,50.57
2023-05-05T20:47:24.471Z,50.57
2023-05-05T20:49:57.972Z,50.60
2023-05-05T20:52:30.962Z,50.75
2023-05-05T20:55:04.038Z,51.10
2023-05-05T20:57:37.070Z,51.06
2023-05-05T21:00:12.091Z,51.06
2023-05-05T21:02:46.064Z,50.87
2023-05-05T21:05:20.452Z,50.98
2023-05-05T21:07:54.547Z,51.13
2023-05-05T21:10:29.063Z,51.15
2023-05-05T21:13:11.819Z,51.29
2023-05-05T21:15:45.336Z,51.38
2023-05-05T21:18:18.412Z,51.46
2023-05-05T21:20:53.344Z,51.54
2023-05-05T21:23:26.283Z,51.44
2023-05-05T21:25:59.319Z,50.90
2023-05-05T21:28:32.528Z,50.61
2023-05-05T21:31:21.077Z,50.58
2023-05-05T21:33:56.236Z,50.35
2023-05-05T21:36:30.191Z,50.16
2023-05-05T21:39:03.694Z,50.15
2023-05-05T21:41:37.336Z,50.06
2023-05-05T21:44:10.448Z,49.91
2023-05-05T21:46:44.505Z,49.86
2023-05-05T21:49:20.722Z,49.80
2023-05-05T21:51:53.713Z,49.67
2023-05-05T21:54:26.989Z,49.57
2023-05-05T21:57:00.299Z,49.80
2023-05-05T21:59:33.599Z,50.04
2023-05-05T22:02:06.975Z,49.98
2023-05-05T22:04:40.786Z,49.85
2023-05-05T22:07:15.812Z,50.11
2023-05-05T22:09:50.501Z,50.00
2023-05-05T22:12:23.440Z,50.06
2023-05-05T22:14:56.764Z,50.18
2023-05-05T22:17:29.799Z,50.11
2023-05-05T22:20:02.939Z,50.34
2023-05-05T22:22:35.789Z,50.35
2023-05-05T22:25:10.061Z,50.35
2023-05-05T22:27:43.014Z,50.71
2023-05-05T22:30:17.384Z,50.86
2023-05-05T22:32:50.555Z,50.80
2023-05-05T22:35:23.893Z,51.01
2023-05-05T22:37:57.019Z,51.07
2023-05-05T22:40:30.051Z,51.21
2023-05-05T22:43:03.522Z,51.42
2023-05-05T22:45:36.705Z,51.47
2023-05-05T22:48:12.499Z,51.57
2023-05-05T22:50:46.649Z,51.71
2023-05-05T22:53:20.495Z,51.71
2023-05-05T22:55:54.490Z,51.76
2023-05-05T22:58:28.302Z,51.65
2023-05-05T23:01:02.696Z,51.81
2023-05-05T23:03:35.742Z,51.96
2023-05-05T23:06:10.677Z,51.72
2023-05-05T23:08:44.771Z,51.86
2023-05-05T23:11:21.080Z,51.75
2023-05-05T23:13:54.401Z,51.81
2023-05-05T23:16:27.605Z,51.78
2023-05-05T23:19:00.820Z,51.72
2023-05-05T23:21:38.909Z,51.51
2023-05-05T23:24:19.382Z,51.68
2023-05-05T23:26:53.340Z,51.28
2023-05-05T23:29:26.116Z,51.41
2023-05-05T23:32:09.039Z,51.40
2023-05-05T23:34:41.937Z,51.67
2023-05-05T23:40:40.029Z,51.60
2023-05-05T23:43:19.825Z,51.51
2023-05-05T23:46:05.896Z,51.48
2023-05-05T23:48:35.439Z,51.51
2023-05-05T23:51:05.887Z,51.46
2023-05-05T23:53:35.452Z,51.39
2023-05-05T23:56:05.880Z,51.73
2023-05-05T23:58:35.380Z,51.75
